createdAt,value
2023-01-29T00:00:20.607Z,100.00
2023-01-29T00:02:47.149Z,100.00
2023-01-29T00:05:26.875Z,100.00
2023-01-29T00:07:54.658Z,100.00
2023-01-29T00:10:21.243Z,100.00
2023-01-29T00:12:47.796Z,100.00
2023-01-29T00:15:14.343Z,100.00
2023-01-29T00:17:40.840Z,100.00
2023-01-29T00:20:07.628Z,100.00
2023-01-29T00:22:34.132Z,100.00
2023-01-29T00:25:00.630Z,100.00
2023-01-29T00:27:27.143Z,100.00
2023-01-29T00:30:12.051Z,100.00
2023-01-29T00:32:40.307Z,100.00
2023-01-29T00:35:08.134Z,100.00
2023-01-29T00:37:35.045Z,100.00
2023-01-29T00:40:01.538Z,100.00
2023-01-29T00:42:46.476Z,100.00
2023-01-29T00:45:13.496Z,100.00
2023-01-29T00:47:40.077Z,100.00
2023-01-29T00:50:10.659Z,100.00
2023-01-29T00:52:37.373Z,100.00
2023-01-29T00:55:05.534Z,100.00
2023-01-29T00:57:34.244Z,100.00
2023-01-29T01:00:01.465Z,100.00
2023-01-29T01:02:46.941Z,100.00
2023-01-29T01:05:18.378Z,100.00
2023-01-29T01:07:52.904Z,100.00
2023-01-29T01:10:24.516Z,100.00
2023-01-29T01:13:02.747Z,100.00
2023-01-29T01:15:35.710Z,100.00
2023-01-29T01:18:03.388Z,100.00
2023-01-29T01:20:31.605Z,100.00
2023-01-29T01:22:58.147Z,100.00
2023-01-29T01:25:25.818Z,100.00
2023-01-29T01:27:57.196Z,100.00
2023-01-29T01:30:25.120Z,100.00
2023-01-29T01:32:51.915Z,100.00
2023-01-29T01:35:18.873Z,100.00
2023-01-29T01:37:45.402Z,100.00
2023-01-29T01:40:18.575Z,100.00
2023-01-29T01:42:58.335Z,100.00
2023-01-29T01:45:34.401Z,100.00
2023-01-29T01:48:16.552Z,100.00
2023-01-29T01:50:46.800Z,100.00
2023-01-29T01:53:19.115Z,100.00
2023-01-29T01:55:53.051Z,100.00
2023-01-29T01:58:27.216Z,100.00
2023-01-29T02:00:54.989Z,100.00
2023-01-29T02:03:41.741Z,100.00
2023-01-29T02:06:28.592Z,100.00
2023-01-29T02:09:21.708Z,100.00
2023-01-29T02:11:48.294Z,100.00
2023-01-29T02:14:14.850Z,100.00
2023-01-29T02:16:41.349Z,100.00
2023-01-29T02:19:26.096Z,100.00
2023-01-29T02:22:22.890Z,100.00
2023-01-29T02:25:09.821Z,100.00
2023-01-29T02:27:48.778Z,100.00
2023-01-29T02:30:24.191Z,100.00
2023-01-29T02:33:00.250Z,100.00
2023-01-29T02:35:32.295Z,100.00
2023-01-29T02:38:18.095Z,100.00
2023-01-29T02:41:03.599Z,100.00
2023-01-29T02:43:36.400Z,100.00
2023-01-29T02:46:26.140Z,100.00
2023-01-29T02:49:19.058Z,100.00
2023-01-29T02:52:05.283Z,100.00
2023-01-29T02:54:53.192Z,100.00
2023-01-29T02:57:22.911Z,100.00
2023-01-29T02:59:55.514Z,100.00
2023-01-29T03:02:44.027Z,100.00
2023-01-29T03:05:17.665Z,100.00
2023-01-29T03:07:53.305Z,100.00
2023-01-29T03:10:24.906Z,100.00
2023-01-29T03:12:56.684Z,100.00
2023-01-29T03:15:28.580Z,100.00
2023-01-29T03:18:09.731Z,100.00
2023-01-29T03:20:48.243Z,100.00
2023-01-29T03:23:27.179Z,100.00
2023-01-29T03:26:15.872Z,100.00
2023-01-29T03:29:04.797Z,100.00
2023-01-29T03:31:51.306Z,100.00
2023-01-29T03:34:24.797Z,100.00
2023-01-29T03:36:55.862Z,100.00
2023-01-29T03:39:24.535Z,100.00
2023-01-29T03:41:58.996Z,100.00
2023-01-29T03:45:00.650Z,100.00
2023-01-29T03:47:44.041Z,100.00
2023-01-29T03:50:25.137Z,100.00
2023-01-29T03:53:00.656Z,100.00
2023-01-29T03:55:56.334Z,100.00
2023-01-29T03:58:32.781Z,100.00
2023-01-29T04:01:21.804Z,100.00
2023-01-29T04:03:56.480Z,100.00
2023-01-29T04:06:29.886Z,100.00
2023-01-29T04:09:03.760Z,100.00
2023-01-29T04:11:31.744Z,100.00
2023-01-29T04:13:58.552Z,100.00
2023-01-29T04:16:29.488Z,100.00
2023-01-29T04:18:56.900Z,100.00
2023-01-29T04:21:25.048Z,100.00
2023-01-29T04:23:51.651Z,100.00
2023-01-29T04:26:27.303Z,100.00
2023-01-29T04:29:18.548Z,100.00
2023-01-29T04:32:00.458Z,100.00
2023-01-29T04:34:46.228Z,100.00
2023-01-29T04:37:23.310Z,100.00
2023-01-29T04:39:59.591Z,100.00
2023-01-29T04:42:33.459Z,100.00
2023-01-29T04:45:13.476Z,100.00
2023-01-29T04:48:02.447Z,100.00
2023-01-29T04:50:37.315Z,100.00
2023-01-29T04:53:37.784Z,100.00
2023-01-29T04:56:08.390Z,100.00
2023-01-29T04:58:49.174Z,100.00
2023-01-29T05:01:19.329Z,100.00
2023-01-29T05:03:51.601Z,100.00
2023-01-29T05:06:20.600Z,100.00
2023-01-29T05:08:49.103Z,100.00
2023-01-29T05:11:16.897Z,100.00
2023-01-29T05:13:43.579Z,100.00
2023-01-29T05:16:17.098Z,100.00
2023-01-29T05:18:43.811Z,100.00
2023-01-29T05:21:10.638Z,100.00
2023-01-29T05:23:37.167Z,100.00
2023-01-29T05:26:04.556Z,100.00
2023-01-29T05:28:31.105Z,100.00
2023-01-29T05:30:57.781Z,100.00
2023-01-29T05:33:27.114Z,100.00
2023-01-29T05:35:54.271Z,100.00
2023-01-29T05:38:21.974Z,100.00
2023-01-29T05:40:49.005Z,100.00
2023-01-29T05:43:16.924Z,100.00
2023-01-29T05:45:43.817Z,100.00
2023-01-29T05:48:10.369Z,100.00
2023-01-29T05:50:37.002Z,100.00
2023-01-29T05:53:03.650Z,100.00
2023-01-29T05:55:30.142Z,100.00
2023-01-29T05:57:56.674Z,100.00
2023-01-29T06:00:23.457Z,100.00
2023-01-29T06:02:50.056Z,100.00
2023-01-29T06:05:16.829Z,100.00
2023-01-29T06:07:45.545Z,100.00
2023-01-29T06:10:18.369Z,100.00
2023-01-29T06:12:45.379Z,100.00
2023-01-29T06:15:13.110Z,100.00
2023-01-29T06:17:39.645Z,100.00
2023-01-29T06:20:06.765Z,100.00
2023-01-29T06:22:33.859Z,100.00
2023-01-29T06:25:00.521Z,100.00
2023-01-29T06:27:27.353Z,100.00
2023-01-29T06:29:53.849Z,100.00
2023-01-29T06:32:20.395Z,100.00
2023-01-29T06:34:49.469Z,100.00
2023-01-29T06:37:16.330Z,100.00
2023-01-29T06:39:42.832Z,100.00
2023-01-29T06:42:10.081Z,100.00
2023-01-29T06:44:36.757Z,100.00
2023-01-29T06:47:03.371Z,100.00
2023-01-29T06:49:29.966Z,100.00
2023-01-29T06:51:56.442Z,100.00
2023-01-29T06:54:23.024Z,100.00
2023-01-29T06:56:49.499Z,100.00
2023-01-29T06:59:16.113Z,100.00
2023-01-29T07:01:44.464Z,100.00
2023-01-29T07:04:11.500Z,100.00
2023-01-29T07:06:38.148Z,100.00
2023-01-29T07:09:05.044Z,100.00
2023-01-29T07:11:32.108Z,100.00
2023-01-29T07:13:58.689Z,100.00
2023-01-29T07:16:26.459Z,100.00
2023-01-29T07:18:53.137Z,100.00
2023-01-29T07:21:19.790Z,100.00
2023-01-29T07:23:46.532Z,100.00
2023-01-29T07:26:13.157Z,100.00
2023-01-29T07:28:40.324Z,100.00
2023-01-29T07:31:07.778Z,100.00
2023-01-29T07:33:34.563Z,100.00
2023-01-29T07:36:01.162Z,100.00
2023-01-29T07:38:27.719Z,100.00
2023-01-29T07:40:54.774Z,100.00
2023-01-29T07:43:21.335Z,100.00
2023-01-29T07:45:47.853Z,100.00
2023-01-29T07:48:14.394Z,100.00
2023-01-29T07:50:41.472Z,100.00
2023-01-29T07:53:16.473Z,100.00
2023-01-29T07:55:46.048Z,100.00
2023-01-29T07:58:12.956Z,100.00
2023-01-29T08:00:39.748Z,100.00
2023-01-29T08:03:10.972Z,100.00
2023-01-29T08:05:37.505Z,100.00
2023-01-29T08:08:07.502Z,100.00
2023-01-29T08:10:38.660Z,100.00
2023-01-29T08:13:06.387Z,100.00
2023-01-29T08:15:33.488Z,100.00
2023-01-29T08:18:02.366Z,100.00
2023-01-29T08:20:29.023Z,100.00
2023-01-29T08:23:00.498Z,100.00
2023-01-29T08:25:27.623Z,100.00
2023-01-29T08:27:54.483Z,100.00
2023-01-29T08:30:21.001Z,100.00
2023-01-29T08:32:47.567Z,100.00
2023-01-29T08:35:14.095Z,100.00
2023-01-29T08:37:40.611Z,100.00
2023-01-29T08:40:09.507Z,100.00
2023-01-29T08:42:36.157Z,100.00
2023-01-29T08:45:02.667Z,100.00
2023-01-29T08:47:29.728Z,100.00
2023-01-29T08:49:56.239Z,100.00
2023-01-29T08:52:22.768Z,100.00
2023-01-29T08:54:49.309Z,100.00
2023-01-29T08:57:15.850Z,100.00
2023-01-29T08:59:42.324Z,100.00
2023-01-29T09:02:11.527Z,100.00
2023-01-29T09:04:38.040Z,100.00
2023-01-29T09:07:04.550Z,100.00
2023-01-29T09:09:31.050Z,100.00
2023-01-29T09:11:57.587Z,100.00
2023-01-29T09:14:24.070Z,100.00
2023-01-29T09:16:50.602Z,100.00
2023-01-29T09:19:17.130Z,100.00
2023-01-29T09:21:43.626Z,100.00
2023-01-29T09:24:10.904Z,100.00
2023-01-29T09:26:39.700Z,100.00
2023-01-29T09:29:06.739Z,100.00
2023-01-29T09:31:33.642Z,100.00
2023-01-29T09:34:00.253Z,100.00
2023-01-29T09:36:26.804Z,100.00
2023-01-29T09:38:53.312Z,100.00
2023-01-29T09:41:37.789Z,100.00
2023-01-29T09:44:14.064Z,100.00
2023-01-29T09:46:49.048Z,100.00
2023-01-29T09:49:32.407Z,100.00
2023-01-29T09:52:05.220Z,100.00
2023-01-29T09:54:52.853Z,100.00
2023-01-29T09:57:24.957Z,100.00
2023-01-29T09:59:51.625Z,97.12
2023-01-29T10:02:50.625Z,95.84
2023-01-29T10:05:50.055Z,94.08
2023-01-29T10:08:34.532Z,95.00
2023-01-29T10:11:35.005Z,97.12
2023-01-29T10:14:17.388Z,96.32
2023-01-29T10:17:01.188Z,96.96
2023-01-29T10:19:36.916Z,97.67
2023-01-29T10:22:34.108Z,99.48
2023-01-29T10:25:02.709Z,100.00
2023-01-29T10:27:39.269Z,100.00
2023-01-29T10:30:21.827Z,100.00
2023-01-29T10:32:50.109Z,100.00
2023-01-29T10:35:53.758Z,100.00
2023-01-29T10:38:43.335Z,100.00
2023-01-29T10:41:27.034Z,100.00
2023-01-29T10:44:13.034Z,100.00
2023-01-29T10:47:21.401Z,100.00
2023-01-29T10:50:17.160Z,100.00
2023-01-29T10:53:24.951Z,100.00
2023-01-29T10:56:26.814Z,100.00
2023-01-29T10:59:27.365Z,100.00
2023-01-29T11:01:59.462Z,100.00
2023-01-29T11:04:28.610Z,100.00
2023-01-29T11:06:55.078Z,100.00
2023-01-29T11:09:37.817Z,100.00
2023-01-29T11:12:19.491Z,100.00
2023-01-29T11:14:53.177Z,100.00
2023-01-29T11:17:22.893Z,100.00
2023-01-29T11:19:51.799Z,100.00
2023-01-29T11:22:23.820Z,100.00
2023-01-29T11:25:15.435Z,100.00
2023-01-29T11:27:54.604Z,100.00
2023-01-29T11:30:39.433Z,100.00
2023-01-29T11:33:21.865Z,100.00
2023-01-29T11:35:48.656Z,100.00
2023-01-29T11:38:28.023Z,100.00
2023-01-29T11:41:06.458Z,100.00
2023-01-29T11:43:33.335Z,100.00
2023-01-29T11:46:13.494Z,100.00
2023-01-29T11:48:43.704Z,100.00
2023-01-29T11:51:20.041Z,100.00
2023-01-29T11:53:52.520Z,100.00
2023-01-29T11:56:27.264Z,100.00
2023-01-29T11:58:55.911Z,100.00
2023-01-29T12:01:39.026Z,100.00
2023-01-29T12:04:19.613Z,100.00
2023-01-29T12:06:50.535Z,100.00
2023-01-29T12:09:20.434Z,100.00
2023-01-29T12:11:47.092Z,100.00
2023-01-29T12:14:34.358Z,100.00
2023-01-29T12:17:20.039Z,100.00
2023-01-29T12:20:02.327Z,100.00
2023-01-29T12:23:09.000Z,100.00
2023-01-29T12:25:52.193Z,100.00
2023-01-29T12:28:39.446Z,100.00
2023-01-29T12:31:27.919Z,100.00
2023-01-29T12:33:57.530Z,100.00
2023-01-29T12:36:38.444Z,100.00
2023-01-29T12:39:05.307Z,100.00
2023-01-29T12:41:47.987Z,100.00
2023-01-29T12:44:24.066Z,100.00
2023-01-29T12:46:54.850Z,100.00
2023-01-29T12:49:35.361Z,100.00
2023-01-29T12:52:07.375Z,100.00
2023-01-29T12:54:50.088Z,100.00
2023-01-29T12:57:26.242Z,100.00
2023-01-29T12:59:58.671Z,100.00
2023-01-29T13:02:44.075Z,100.00
2023-01-29T13:05:38.651Z,100.00
2023-01-29T13:08:14.494Z,100.00
2023-01-29T13:10:45.690Z,100.00
2023-01-29T13:13:34.061Z,100.00
2023-01-29T13:16:03.939Z,100.00
2023-01-29T13:18:40.190Z,100.00
2023-01-29T13:21:12.102Z,100.00
2023-01-29T13:23:45.185Z,100.00
2023-01-29T13:26:13.807Z,100.00
2023-01-29T13:28:44.243Z,100.00
2023-01-29T13:31:32.710Z,100.00
2023-01-29T13:34:25.692Z,100.00
2023-01-29T13:37:09.291Z,100.00
2023-01-29T13:39:46.109Z,100.00
2023-01-29T13:42:25.146Z,100.00
2023-01-29T13:44:55.655Z,100.00
2023-01-29T13:47:31.560Z,100.00
2023-01-29T13:50:02.925Z,100.00
2023-01-29T13:52:43.320Z,100.00
2023-01-29T13:55:26.245Z,100.00
2023-01-29T13:57:56.133Z,100.00
2023-01-29T14:00:24.368Z,100.00
2023-01-29T14:03:11.381Z,100.00
2023-01-29T14:05:57.393Z,100.00
2023-01-29T14:08:37.908Z,100.00
2023-01-29T14:11:13.339Z,100.00
2023-01-29T14:13:42.035Z,100.00
2023-01-29T14:16:14.382Z,100.00
2023-01-29T14:18:57.946Z,100.00
2023-01-29T14:21:32.036Z,100.00
2023-01-29T14:24:20.991Z,100.00
2023-01-29T14:26:49.590Z,100.00
2023-01-29T14:29:34.708Z,100.00
2023-01-29T14:32:07.888Z,100.00
2023-01-29T14:34:44.742Z,100.00
2023-01-29T14:37:17.128Z,100.00
2023-01-29T14:39:57.689Z,100.00
2023-01-29T14:42:33.030Z,100.00
2023-01-29T14:45:22.480Z,100.00
2023-01-29T14:47:49.055Z,100.00
2023-01-29T14:50:33.585Z,100.00
2023-01-29T14:53:26.213Z,100.00
2023-01-29T14:55:59.770Z,100.00
2023-01-29T14:58:29.756Z,100.00
2023-01-29T15:00:58.921Z,100.00
2023-01-29T15:03:45.693Z,100.00
2023-01-29T15:06:20.113Z,100.00
2023-01-29T15:09:00.046Z,100.00
2023-01-29T15:11:48.080Z,100.00
2023-01-29T15:15:15.994Z,100.00
2023-01-29T15:17:59.788Z,100.00
2023-01-29T15:20:32.275Z,100.00
2023-01-29T15:23:00.427Z,100.00
2023-01-29T15:25:48.740Z,100.00
2023-01-29T15:28:15.555Z,100.00
2023-01-29T15:30:43.812Z,100.00
2023-01-29T15:33:14.181Z,100.00
2023-01-29T15:35:42.334Z,100.00
2023-01-29T15:38:18.885Z,100.00
2023-01-29T15:40:57.041Z,100.00
2023-01-29T15:43:36.812Z,100.00
2023-01-29T15:46:10.674Z,100.00
2023-01-29T15:48:43.550Z,100.00
2023-01-29T15:51:19.738Z,100.00
2023-01-29T15:53:50.010Z,100.00
2023-01-29T15:56:26.115Z,100.00
2023-01-29T15:58:52.693Z,100.00
2023-01-29T16:01:19.933Z,100.00
2023-01-29T16:03:49.745Z,100.00
2023-01-29T16:06:17.037Z,100.00
2023-01-29T16:08:47.884Z,100.00
2023-01-29T16:11:16.353Z,100.00
2023-01-29T16:13:44.334Z,100.00
2023-01-29T16:16:45.873Z,100.00
2023-01-29T16:19:23.932Z,100.00
2023-01-29T16:21:59.275Z,100.00
2023-01-29T16:24:26.888Z,100.00
2023-01-29T16:27:02.493Z,100.00
2023-01-29T16:29:33.944Z,100.00
2023-01-29T16:32:02.788Z,100.00
2023-01-29T16:34:34.943Z,100.00
2023-01-29T16:37:04.955Z,100.00
2023-01-29T16:39:43.868Z,100.00
2023-01-29T16:42:10.836Z,100.00
2023-01-29T16:44:40.163Z,100.00
2023-01-29T16:47:13.037Z,100.00
2023-01-29T16:49:39.635Z,100.00
2023-01-29T16:52:25.200Z,100.00
2023-01-29T16:54:52.815Z,100.00
2023-01-29T16:57:29.738Z,100.00
2023-01-29T17:00:01.372Z,100.00
2023-01-29T17:02:33.452Z,100.00
2023-01-29T17:05:07.805Z,100.00
2023-01-29T17:07:36.668Z,100.00
2023-01-29T17:10:05.721Z,100.00
2023-01-29T17:12:33.727Z,100.00
2023-01-29T17:15:04.112Z,100.00
2023-01-29T17:17:36.287Z,100.00
2023-01-29T17:20:14.307Z,100.00
2023-01-29T17:22:40.917Z,100.00
2023-01-29T17:25:07.819Z,100.00
2023-01-29T17:27:34.380Z,100.00
2023-01-29T17:30:01.078Z,100.00
2023-01-29T17:32:44.057Z,100.00
2023-01-29T17:35:14.494Z,100.00
2023-01-29T17:37:41.378Z,100.00
2023-01-29T17:40:29.628Z,100.00
2023-01-29T17:42:56.093Z,100.00
2023-01-29T17:45:22.636Z,100.00
2023-01-29T17:47:49.182Z,100.00
2023-01-29T17:50:27.081Z,100.00
2023-01-29T17:52:53.982Z,100.00
2023-01-29T17:55:20.965Z,100.00
2023-01-29T17:57:47.617Z,100.00
2023-01-29T18:00:20.193Z,100.00
2023-01-29T18:02:47.047Z,100.00
2023-01-29T18:05:14.864Z,100.00
2023-01-29T18:07:44.335Z,100.00
2023-01-29T18:10:18.621Z,100.00
2023-01-29T18:12:45.744Z,100.00
2023-01-29T18:15:12.732Z,100.00
2023-01-29T18:17:40.420Z,100.00
2023-01-29T18:20:38.495Z,100.00
2023-01-29T18:23:06.651Z,100.00
2023-01-29T18:25:34.552Z,100.00
2023-01-29T18:28:01.390Z,100.00
2023-01-29T18:30:28.272Z,100.00
2023-01-29T18:32:54.813Z,100.00
2023-01-29T18:35:21.864Z,100.00
2023-01-29T18:37:48.592Z,100.00
2023-01-29T18:40:17.362Z,100.00
2023-01-29T18:42:45.568Z,100.00
2023-01-29T18:45:13.519Z,100.00
2023-01-29T18:47:40.748Z,100.00
2023-01-29T18:50:08.683Z,100.00
2023-01-29T18:52:35.282Z,100.00
2023-01-29T18:55:01.992Z,100.00
2023-01-29T18:58:27.382Z,100.00
2023-01-29T19:00:15.875Z,100.00
2023-01-29T19:02:43.196Z,100.00
2023-01-29T19:05:09.919Z,100.00
2023-01-29T19:07:37.153Z,100.00
2023-01-29T19:10:07.066Z,100.00
2023-01-29T19:12:34.567Z,100.00
2023-01-29T19:15:01.467Z,100.00
2023-01-29T19:17:28.275Z,100.00
2023-01-29T19:19:56.550Z,100.00
2023-01-29T19:22:23.230Z,100.00
2023-01-29T19:24:49.954Z,100.00
2023-01-29T19:27:16.483Z,100.00
2023-01-29T19:29:42.991Z,100.00
2023-01-29T19:32:10.002Z,100.00
2023-01-29T19:34:37.062Z,100.00
2023-01-29T19:37:04.025Z,100.00
2023-01-29T19:39:33.934Z,100.00
2023-01-29T19:42:01.475Z,100.00
2023-01-29T19:44:28.370Z,100.00
2023-01-29T19:46:54.874Z,100.00
2023-01-29T19:49:21.495Z,100.00
2023-01-29T19:51:48.047Z,100.00
2023-01-29T19:54:14.631Z,100.00
2023-01-29T19:56:41.318Z,100.00
2023-01-29T19:59:08.056Z,100.00
2023-01-29T20:01:34.768Z,100.00
2023-01-29T20:04:01.494Z,100.00
2023-01-29T20:06:31.145Z,100.00
2023-01-29T20:08:58.204Z,100.00
2023-01-29T20:11:25.500Z,100.00
2023-01-29T20:13:52.980Z,100.00
2023-01-29T20:16:19.901Z,100.00
2023-01-29T20:18:46.673Z,100.00
2023-01-29T20:21:15.672Z,100.00
2023-01-29T20:23:44.245Z,100.00
2023-01-29T20:26:14.525Z,100.00
2023-01-29T20:28:42.002Z,100.00
2023-01-29T20:31:09.537Z,100.00
2023-01-29T20:33:39.184Z,100.00
2023-01-29T20:36:08.365Z,100.00
2023-01-29T20:38:34.904Z,100.00
2023-01-29T20:41:10.637Z,100.00
2023-01-29T20:43:37.235Z,100.00
2023-01-29T20:46:04.888Z,100.00
2023-01-29T20:48:32.189Z,100.00
2023-01-29T20:51:16.781Z,100.00
2023-01-29T20:53:45.974Z,100.00
2023-01-29T20:56:13.376Z,100.00
2023-01-29T20:58:41.125Z,100.00
2023-01-29T21:01:10.240Z,100.00
2023-01-29T21:03:38.127Z,100.00
2023-01-29T21:06:05.322Z,100.00
2023-01-29T21:08:31.864Z,100.00
2023-01-29T21:10:58.551Z,100.00
2023-01-29T21:13:25.131Z,100.00
2023-01-29T21:15:51.717Z,100.00
2023-01-29T21:18:18.303Z,100.00
2023-01-29T21:20:44.938Z,100.00
2023-01-29T21:23:11.627Z,100.00
2023-01-29T21:25:38.838Z,100.00
2023-01-29T21:28:06.166Z,100.00
2023-01-29T21:30:33.053Z,100.00
2023-01-29T21:32:59.987Z,100.00
2023-01-29T21:35:26.625Z,100.00
2023-01-29T21:37:53.235Z,100.00
2023-01-29T21:40:21.311Z,100.00
2023-01-29T21:43:07.171Z,100.00
2023-01-29T21:45:35.463Z,100.00
2023-01-29T21:48:02.415Z,100.00
2023-01-29T21:50:29.022Z,100.00
2023-01-29T21:52:55.653Z,100.00
2023-01-29T21:55:22.263Z,100.00
2023-01-29T21:57:48.805Z,100.00
2023-01-29T22:00:16.209Z,100.00
2023-01-29T22:02:43.154Z,100.00
2023-01-29T22:05:18.915Z,100.00
2023-01-29T22:07:47.201Z,100.00
2023-01-29T22:10:14.399Z,100.00
2023-01-29T22:12:41.312Z,100.00
2023-01-29T22:15:08.629Z,100.00
2023-01-29T22:17:35.437Z,100.00
2023-01-29T22:20:02.319Z,100.00
2023-01-29T22:22:28.887Z,100.00
2023-01-29T22:24:56.520Z,100.00
2023-01-29T22:27:23.018Z,100.00
2023-01-29T22:29:49.527Z,100.00
2023-01-29T22:32:16.491Z,100.00
2023-01-29T22:34:43.026Z,100.00
2023-01-29T22:37:09.672Z,100.00
2023-01-29T22:39:36.171Z,100.00
2023-01-29T22:42:02.693Z,100.00
2023-01-29T22:44:29.212Z,100.00
2023-01-29T22:46:55.738Z,100.00
2023-01-29T22:49:23.164Z,100.00
2023-01-29T22:52:09.633Z,100.00
2023-01-29T22:54:43.499Z,100.00
2023-01-29T22:57:12.140Z,100.00
2023-01-29T22:59:39.197Z,100.00
2023-01-29T23:02:07.401Z,100.00
2023-01-29T23:04:34.021Z,100.00
2023-01-29T23:07:00.517Z,100.00
2023-01-29T23:09:30.056Z,100.00
2023-01-29T23:11:56.576Z,100.00
2023-01-29T23:14:23.072Z,100.00
2023-01-29T23:16:49.550Z,100.00
2023-01-29T23:19:16.045Z,100.00
2023-01-29T23:21:42.620Z,100.00
2023-01-29T23:24:09.709Z,100.00
2023-01-29T23:26:54.549Z,100.00
2023-01-29T23:29:21.643Z,100.00
2023-01-29T23:31:48.439Z,100.00
2023-01-29T23:34:15.597Z,100.00
2023-01-29T23:36:42.668Z,100.00
2023-01-29T23:39:09.595Z,100.00
2023-01-29T23:41:36.285Z,100.00
2023-01-29T23:44:03.021Z,100.00
2023-01-29T23:46:29.664Z,100.00
2023-01-29T23:48:56.249Z,100.00
2023-01-29T23:51:22.783Z,100.00
2023-01-29T23:53:49.300Z,100.00
2023-01-29T23:56:15.869Z,100.00
2023-01-29T23:58:42.399Z,100.00
